Time;durP1;ratioP1;P1;durP2;ratioP2;P2;SDS_P1;SDS_P2;PMS_P1;PMS_P2;Temp;Humidity;BMP_temperature;BMP_pressure;BME280_temperature;BME280_humidity;BME280_pressure;Samples;Min_cycle;Max_cycle;Signal;HPM_P1;HPM_P2
2022/05/06 00:01:08;;;;;;;21.38;14.25;;;7.90;83.30;;;;;;5041445;28;20033;-44
2022/05/06 00:03:37;;;;;;;16.33;12.38;;;7.90;83.50;;;;;;5056171;28;20106;-44
2022/05/06 00:06:04;;;;;;;19.63;13.88;;;7.80;83.40;;;;;;5053307;28;20043;-44
2022/05/06 00:08:31;;;;;;;16.90;13.27;;;7.80;83.70;;;;;;5036497;28;20037;-46
2022/05/06 00:10:59;;;;;;;18.17;13.05;;;7.80;83.70;;;;;;5054630;28;20032;-46
2022/05/06 00:13:25;;;;;;;20.65;13.77;;;7.80;83.70;;;;;;5033574;28;20040;-49
2022/05/06 00:15:52;;;;;;;16.15;11.77;;;7.70;83.70;;;;;;5038148;28;20021;-44
2022/05/06 00:18:20;;;;;;;17.38;12.63;;;7.70;83.70;;;;;;5044252;28;20351;-44
2022/05/06 00:20:48;;;;;;;18.15;13.00;;;7.70;83.60;;;;;;5053411;28;20036;-44
2022/05/06 00:23:13;;;;;;;17.27;13.07;;;7.70;83.80;;;;;;5052412;28;20055;-44
2022/05/06 00:25:40;;;;;;;17.80;14.15;;;7.70;83.80;;;;;;5036581;28;20037;-44
2022/05/06 00:28:07;;;;;;;19.33;13.27;;;7.60;83.80;;;;;;5054862;28;20083;-44
2022/05/06 00:30:33;;;;;;;18.50;13.63;;;7.60;83.80;;;;;;5036791;28;20367;-44
2022/05/06 00:33:00;;;;;;;15.85;11.63;;;7.60;83.80;;;;;;5053978;28;20083;-44
2022/05/06 00:35:27;;;;;;;16.30;12.93;;;7.50;83.80;;;;;;5053554;28;20036;-43
2022/05/06 00:37:54;;;;;;;18.13;12.05;;;7.50;83.70;;;;;;5051820;28;20028;-44
2022/05/06 00:40:21;;;;;;;19.33;13.13;;;7.50;83.70;;;;;;5034498;28;20033;-46
2022/05/06 00:42:50;;;;;;;17.48;11.85;;;7.40;83.70;;;;;;5054418;28;20044;-44
2022/05/06 00:45:17;;;;;;;18.25;12.27;;;7.40;83.70;;;;;;5053309;28;20029;-43
2022/05/06 00:47:46;;;;;;;18.42;12.60;;;7.40;83.70;;;;;;5054107;28;20099;-45
2022/05/06 00:50:14;;;;;;;17.08;12.82;;;7.40;84.00;;;;;;5046249;28;20036;-46
2022/05/06 00:52:39;;;;;;;16.05;12.35;;;7.40;83.90;;;;;;5053559;28;20458;-44
2022/05/06 00:55:06;;;;;;;20.05;14.35;;;7.40;83.90;;;;;;5034578;28;20131;-43
2022/05/06 00:57:34;;;;;;;19.20;13.02;;;7.40;84.00;;;;;;5051826;28;20442;-44
2022/05/06 01:00:18;;;;;;;18.48;12.55;;;7.40;83.90;;;;;;5040546;28;20080;-46
2022/05/06 01:02:46;;;;;;;19.67;13.70;;;7.30;83.60;;;;;;5051340;28;20037;-43
2022/05/06 01:05:14;;;;;;;18.90;13.52;;;7.30;83.90;;;;;;5053444;28;20040;-44
2022/05/06 01:07:43;;;;;;;17.60;13.23;;;7.30;83.90;;;;;;5051372;28;20041;-44
2022/05/06 01:10:10;;;;;;;23.63;13.70;;;7.20;83.70;;;;;;5053288;28;20025;-43
2022/05/06 01:12:37;;;;;;;20.75;13.65;;;7.20;83.80;;;;;;5051837;28;20039;-43
2022/05/06 01:15:17;;;;;;;19.40;13.93;;;7.10;83.70;;;;;;5035694;28;20084;-43
2022/05/06 01:17:48;;;;;;;19.40;13.57;;;7.10;83.90;;;;;;5052482;28;20033;-43
2022/05/06 01:20:17;;;;;;;16.65;12.90;;;7.00;84.10;;;;;;5053808;28;20053;-44
2022/05/06 01:22:50;;;;;;;21.70;14.00;;;7.10;84.10;;;;;;5053374;28;20349;-43
2022/05/06 01:25:18;;;;;;;17.83;13.38;;;7.00;84.20;;;;;;5051974;28;20029;-44
2022/05/06 01:28:12;;;;;;;16.77;13.38;;;7.00;84.20;;;;;;5044090;28;20041;-43
2022/05/06 01:31:01;;;;;;;15.50;12.35;;;7.00;84.40;;;;;;5050616;28;20072;-44
2022/05/06 01:33:29;;;;;;;17.33;13.55;;;6.90;84.50;;;;;;5054651;28;20021;-43
2022/05/06 01:36:00;;;;;;;18.27;13.25;;;6.90;84.50;;;;;;5051607;28;20033;-44
2022/05/06 01:38:59;;;;;;;16.48;12.15;;;6.90;84.60;;;;;;5053110;28;20041;-45
2022/05/06 01:41:35;;;;;;;16.90;13.27;;;6.90;84.70;;;;;;5024375;28;20405;-44
2022/05/06 01:44:07;;;;;;;17.67;13.38;;;6.90;84.60;;;;;;5052828;28;20040;-43
2022/05/06 01:46:36;;;;;;;23.45;14.55;;;6.80;84.70;;;;;;5053605;28;20472;-43
2022/05/06 01:49:03;;;;;;;20.10;14.73;;;6.90;85.20;;;;;;5045964;28;20033;-46
2022/05/06 01:51:29;;;;;;;19.30;15.45;;;6.90;85.00;;;;;;5050262;28;20474;-44
2022/05/06 01:53:58;;;;;;;20.80;15.13;;;6.90;84.90;;;;;;5047651;28;20443;-45
2022/05/06 01:56:31;;;;;;;19.17;14.37;;;6.90;85.00;;;;;;5050965;28;20029;-47
2022/05/06 01:58:58;;;;;;;23.65;16.27;;;6.90;84.90;;;;;;5030018;28;20295;-43
2022/05/06 02:01:25;;;;;;;24.30;15.65;;;6.90;84.90;;;;;;5036707;28;20362;-43
2022/05/06 02:06:37;;;;;;;20.95;14.07;;;6.90;85.20;;;;;;5050452;28;20069;-45
2022/05/06 02:09:06;;;;;;;19.45;14.60;;;6.80;85.10;;;;;;5051777;28;20862;-45
2022/05/06 02:11:33;;;;;;;16.85;13.98;;;6.80;85.20;;;;;;5052898;28;20041;-45
2022/05/06 02:14:00;;;;;;;21.63;14.73;;;6.80;85.20;;;;;;5033199;28;20496;-43
2022/05/06 02:16:28;;;;;;;22.02;15.63;;;6.80;85.20;;;;;;5052855;28;20043;-45
2022/05/06 02:18:58;;;;;;;22.40;14.18;;;6.70;84.90;;;;;;5052447;28;20021;-44
2022/05/06 02:21:27;;;;;;;21.85;14.98;;;6.60;85.20;;;;;;5034620;28;20029;-43
2022/05/06 02:23:54;;;;;;;20.75;13.88;;;6.60;85.30;;;;;;5051985;28;20041;-44
2022/05/06 02:26:21;;;;;;;22.92;15.02;;;6.70;85.40;;;;;;5034975;28;20402;-44
2022/05/06 02:28:50;;;;;;;23.85;15.55;;;6.70;85.30;;;;;;5048904;28;20041;-44
2022/05/06 02:34:04;;;;;;;21.10;14.05;;;6.70;85.20;;;;;;5051644;28;20102;-44
2022/05/06 02:36:31;;;;;;;19.83;14.57;;;6.70;85.50;;;;;;5052537;28;20048;-46
2022/05/06 02:38:58;;;;;;;22.40;16.73;;;6.70;85.30;;;;;;5052150;28;20045;-44
2022/05/06 02:41:25;;;;;;;20.88;15.43;;;6.80;85.30;;;;;;5023608;28;20037;-43
2022/05/06 02:43:51;;;;;;;22.65;14.45;;;6.80;85.20;;;;;;5025742;28;20056;-47
2022/05/06 02:46:17;;;;;;;18.20;12.38;;;6.70;85.00;;;;;;5051977;28;20028;-44
2022/05/06 02:48:44;;;;;;;18.73;13.52;;;6.70;85.00;;;;;;5028126;28;20574;-43
2022/05/06 02:51:11;;;;;;;19.48;13.88;;;6.60;85.00;;;;;;5047618;28;20095;-43
2022/05/06 02:53:38;;;;;;;18.77;13.30;;;6.70;85.30;;;;;;5052790;28;20056;-43
2022/05/06 02:56:05;;;;;;;18.10;13.25;;;6.60;85.10;;;;;;5051436;28;20106;-45
2022/05/06 02:58:31;;;;;;;18.90;13.77;;;6.60;85.10;;;;;;5024861;28;20021;-43
2022/05/06 03:00:58;;;;;;;21.02;15.27;;;6.60;85.20;;;;;;5044473;28;20033;-44
2022/05/06 03:03:25;;;;;;;18.23;13.95;;;6.60;85.50;;;;;;5020563;28;20028;-43
2022/05/06 03:05:52;;;;;;;17.90;14.15;;;6.60;85.40;;;;;;5052218;28;20090;-44
2022/05/06 03:08:19;;;;;;;19.67;14.65;;;6.60;85.50;;;;;;5049471;28;20426;-49
2022/05/06 03:10:45;;;;;;;20.55;12.98;;;6.60;85.40;;;;;;5050909;28;20037;-43
2022/05/06 03:13:15;;;;;;;20.92;13.18;;;6.60;85.40;;;;;;5052762;28;20025;-49
2022/05/06 03:15:43;;;;;;;19.05;12.82;;;6.50;85.50;;;;;;5048732;28;20029;-45
2022/05/06 03:18:10;;;;;;;20.13;14.50;;;6.50;85.40;;;;;;5035131;28;20044;-46
2022/05/06 03:20:38;;;;;;;19.52;14.10;;;6.60;85.50;;;;;;5040913;28;20021;-46
2022/05/06 03:23:05;;;;;;;22.15;15.52;;;6.60;85.60;;;;;;5035302;28;20025;-46
2022/05/06 03:25:30;;;;;;;19.95;14.80;;;6.60;85.70;;;;;;5050575;28;20021;-45
2022/05/06 03:28:03;;;;;;;21.50;15.65;;;6.60;85.80;;;;;;5051031;28;20040;-43
2022/05/06 03:30:31;;;;;;;21.05;14.57;;;6.60;86.00;;;;;;5051545;28;20331;-46
2022/05/06 03:33:02;;;;;;;20.40;13.93;;;6.60;85.90;;;;;;5049228;28;20043;-44
2022/05/06 03:35:28;;;;;;;21.88;15.13;;;6.60;85.90;;;;;;5053454;28;20025;-47
2022/05/06 03:37:58;;;;;;;18.15;13.77;;;6.60;85.90;;;;;;5053645;28;20152;-43
2022/05/06 03:40:25;;;;;;;18.60;13.40;;;6.60;85.90;;;;;;5055152;28;20142;-42
2022/05/06 03:42:52;;;;;;;20.90;12.77;;;6.60;85.80;;;;;;5056386;28;20056;-44
2022/05/06 03:45:19;;;;;;;18.92;12.40;;;6.60;85.90;;;;;;5055121;28;20079;-42
2022/05/06 03:47:46;;;;;;;16.92;12.02;;;6.60;86.00;;;;;;5055521;28;20113;-45
2022/05/06 03:53:00;;;;;;;20.70;11.15;;;6.70;85.90;;;;;;5049638;28;20052;-44
2022/05/06 03:55:28;;;;;;;17.47;12.03;;;6.70;85.80;;;;;;5055970;28;20021;-44
2022/05/06 03:57:55;;;;;;;14.95;11.07;;;6.70;85.70;;;;;;5038166;28;20284;-43
2022/05/06 04:00:22;;;;;;;17.60;11.40;;;6.70;85.60;;;;;;5047901;28;20557;-46
2022/05/06 04:02:48;;;;;;;17.80;12.35;;;6.70;85.60;;;;;;5054936;28;20021;-45
2022/05/06 04:05:15;;;;;;;19.55;13.30;;;6.70;85.80;;;;;;5054059;28;20048;-43
2022/05/06 04:07:42;;;;;;;19.33;13.45;;;6.70;85.90;;;;;;5053436;28;20108;-42
2022/05/06 04:10:09;;;;;;;16.00;12.43;;;6.70;86.10;;;;;;5055041;28;20353;-44
2022/05/06 04:12:41;;;;;;;18.02;12.18;;;6.80;86.00;;;;;;5051969;28;20125;-41
2022/05/06 04:15:08;;;;;;;22.40;12.50;;;6.80;86.00;;;;;;5054884;28;20036;-42
2022/05/06 04:17:35;;;;;;;18.08;12.93;;;6.90;86.00;;;;;;5049759;28;20047;-42
2022/05/06 04:25:36;;;;;;;16.98;12.43;;;7.10;85.90;;;;;;5053051;28;20090;-44
2022/05/06 04:28:02;;;;;;;17.73;12.07;;;7.20;85.70;;;;;;5035808;28;20330;-42
2022/05/06 04:30:29;;;;;;;18.45;13.68;;;7.30;85.50;;;;;;5054631;28;20029;-42
2022/05/06 04:32:55;;;;;;;17.83;13.10;;;7.40;85.60;;;;;;5051589;28;20032;-41
2022/05/06 04:35:20;;;;;;;19.83;14.18;;;7.50;85.20;;;;;;5050961;28;20144;-42
2022/05/06 04:37:47;;;;;;;20.35;13.07;;;7.70;85.10;;;;;;5054169;28;20362;-42
2022/05/06 04:40:14;;;;;;;19.25;14.73;;;7.80;85.00;;;;;;5055442;28;20025;-42
2022/05/06 04:42:45;;;;;;;18.85;14.07;;;7.90;84.70;;;;;;5053730;28;20833;-42
2022/05/06 04:45:11;;;;;;;17.75;13.00;;;7.90;84.30;;;;;;5051835;28;20557;-43
2022/05/06 04:47:38;;;;;;;20.83;13.98;;;7.90;84.40;;;;;;5043980;28;20029;-43
2022/05/06 04:50:05;;;;;;;23.25;15.40;;;8.10;84.60;;;;;;5033396;28;20044;-43
2022/05/06 04:52:32;;;;;;;23.52;15.00;;;8.30;84.60;;;;;;5038178;28;20450;-42
2022/05/06 04:54:58;;;;;;;18.00;13.20;;;8.40;84.40;;;;;;5017097;28;20036;-43
2022/05/06 04:57:26;;;;;;;19.95;14.68;;;8.40;83.90;;;;;;5038265;28;20347;-46
2022/05/06 04:59:54;;;;;;;22.42;15.35;;;8.40;84.20;;;;;;5032916;28;20035;-44
2022/05/06 05:02:21;;;;;;;21.50;14.80;;;8.40;84.30;;;;;;5022568;28;20026;-42
2022/05/06 05:04:52;;;;;;;19.27;14.48;;;8.40;84.30;;;;;;5016033;28;20500;-44
2022/05/06 05:07:19;;;;;;;18.98;14.25;;;8.40;84.40;;;;;;5018844;28;20140;-43
2022/05/06 05:09:46;;;;;;;23.52;15.57;;;8.40;84.40;;;;;;5032909;28;20568;-42
2022/05/06 05:12:13;;;;;;;22.25;15.07;;;8.50;84.40;;;;;;5035159;28;20067;-43
2022/05/06 05:14:38;;;;;;;24.35;16.40;;;8.50;84.50;;;;;;5040473;28;20541;-42
2022/05/06 05:17:05;;;;;;;23.70;16.70;;;8.50;84.60;;;;;;5046322;28;20060;-43
2022/05/06 05:19:31;;;;;;;26.23;16.58;;;8.60;84.50;;;;;;5034954;28;20308;-42
2022/05/06 05:21:58;;;;;;;27.08;17.67;;;8.70;84.80;;;;;;5040209;28;20051;-43
2022/05/06 05:24:24;;;;;;;21.67;15.98;;;8.80;84.90;;;;;;5017796;28;20025;-43
2022/05/06 05:26:51;;;;;;;23.17;17.77;;;8.90;85.20;;;;;;5035769;28;20378;-43
2022/05/06 05:29:18;;;;;;;24.05;17.05;;;9.00;85.10;;;;;;5041688;28;20503;-43
2022/05/06 05:31:44;;;;;;;21.20;16.95;;;9.00;85.20;;;;;;5042267;28;20052;-43
2022/05/06 05:34:10;;;;;;;25.08;16.40;;;9.10;85.10;;;;;;5036010;28;20033;-44
2022/05/06 05:36:37;;;;;;;23.77;17.52;;;9.20;85.00;;;;;;5053907;28;20033;-43
2022/05/06 05:39:06;;;;;;;20.70;16.75;;;9.30;84.70;;;;;;5052453;28;20031;-43
2022/05/06 05:41:33;;;;;;;23.60;17.30;;;9.40;84.60;;;;;;5047122;28;20036;-43
2022/05/06 05:49:32;;;;;;;21.60;16.27;;;10.00;84.40;;;;;;5032996;28;20216;-44
2022/05/06 05:51:59;;;;;;;21.17;15.35;;;10.30;84.00;;;;;;5033176;28;20510;-42
2022/05/06 05:54:26;;;;;;;27.10;19.08;;;10.50;83.40;;;;;;5032014;28;20049;-46
2022/05/06 05:56:55;;;;;;;26.35;18.00;;;10.80;83.00;;;;;;5031706;28;20022;-44
2022/05/06 05:59:25;;;;;;;20.88;15.50;;;11.00;82.50;;;;;;5032840;28;20025;-46
2022/05/06 06:01:55;;;;;;;;;;;11.30;82.30;;;;;;5035546;28;21043;-44
2022/05/06 06:04:25;;;;;;;20.55;15.60;;;11.40;82.00;;;;;;5030791;28;19928;-44
2022/05/06 06:06:51;;;;;;;20.85;15.07;;;11.60;81.50;;;;;;5031838;28;20033;-47
2022/05/06 06:09:22;;;;;;;19.52;15.75;;;11.80;81.00;;;;;;5032615;28;20028;-45
2022/05/06 06:11:49;;;;;;;18.70;15.20;;;11.90;81.00;;;;;;5030500;28;20335;-46
2022/05/06 06:14:16;;;;;;;23.83;16.67;;;11.90;80.40;;;;;;5031861;28;20029;-44
2022/05/06 06:16:43;;;;;;;23.13;17.20;;;12.10;80.50;;;;;;5016136;28;20030;-44
2022/05/06 06:19:10;;;;;;;18.52;15.60;;;12.20;80.90;;;;;;5015240;28;20036;-48
2022/05/06 06:21:39;;;;;;;16.40;12.93;;;12.20;80.60;;;;;;5032078;28;20109;-45
2022/05/06 06:24:06;;;;;;;18.10;16.15;;;12.30;80.80;;;;;;5030324;28;20108;-47
2022/05/06 06:26:32;;;;;;;18.05;15.90;;;12.40;80.70;;;;;;5032808;28;20083;-45
2022/05/06 06:28:59;;;;;;;17.77;15.60;;;12.50;81.30;;;;;;5031102;28;20742;-45
2022/05/06 06:31:26;;;;;;;17.58;14.00;;;12.60;81.20;;;;;;5013036;28;20091;-45
2022/05/06 06:33:53;;;;;;;20.70;15.95;;;12.70;80.70;;;;;;5030565;28;20040;-45
2022/05/06 06:36:20;;;;;;;20.23;16.13;;;12.80;81.10;;;;;;5032203;28;20029;-47
2022/05/06 06:38:46;;;;;;;18.20;15.32;;;12.90;81.10;;;;;;5032955;28;20034;-46
2022/05/06 06:41:13;;;;;;;20.00;14.32;;;13.10;80.80;;;;;;5032057;28;20055;-48
2022/05/06 06:43:40;;;;;;;19.33;16.90;;;13.20;80.50;;;;;;5032057;28;20478;-45
2022/05/06 06:46:10;;;;;;;19.45;15.25;;;13.40;80.30;;;;;;5027096;28;20039;-46
2022/05/06 06:48:39;;;;;;;16.80;15.00;;;13.50;79.50;;;;;;5032355;28;20043;-45
2022/05/06 06:51:06;;;;;;;20.58;17.15;;;13.70;80.20;;;;;;5032309;28;20060;-45
2022/05/06 06:53:33;;;;;;;17.15;15.23;;;13.90;78.80;;;;;;5041001;28;20053;-46
2022/05/06 06:56:00;;;;;;;16.80;15.07;;;14.00;77.50;;;;;;5050520;28;20033;-44
2022/05/06 06:58:27;;;;;;;18.90;14.40;;;14.20;77.10;;;;;;5049261;28;20119;-45
2022/05/06 07:00:54;;;;;;;16.60;14.23;;;14.30;76.80;;;;;;5046289;28;20033;-44
2022/05/06 07:03:20;;;;;;;16.73;13.68;;;14.50;76.50;;;;;;5032020;28;20029;-44
2022/05/06 07:14:04;;;;;;;14.55;12.63;;;14.90;73.30;;;;;;5051318;28;20047;-44
2022/05/06 07:16:31;;;;;;;15.48;12.98;;;15.10;73.10;;;;;;5049327;28;20104;-45
2022/05/06 07:18:58;;;;;;;14.30;11.75;;;15.40;71.90;;;;;;5051862;28;20032;-47
2022/05/06 07:21:25;;;;;;;13.10;11.35;;;15.60;71.70;;;;;;5047994;28;20117;-45
2022/05/06 07:23:51;;;;;;;16.25;12.63;;;15.70;70.80;;;;;;5043206;28;20029;-48
2022/05/06 07:26:18;;;;;;;15.65;12.35;;;15.80;69.20;;;;;;5032339;28;20706;-47
2022/05/06 07:28:44;;;;;;;16.02;12.70;;;15.90;69.90;;;;;;5034278;28;20039;-46
2022/05/06 07:31:11;;;;;;;15.98;12.48;;;16.00;69.10;;;;;;5032024;28;20434;-47
2022/05/06 07:33:38;;;;;;;18.10;11.90;;;15.90;68.20;;;;;;5051862;28;20087;-46
2022/05/06 07:36:05;;;;;;;18.90;15.50;;;16.00;69.60;;;;;;5051497;28;20033;-46
2022/05/06 07:38:32;;;;;;;16.88;15.05;;;16.20;68.80;;;;;;5050060;28;20033;-45
2022/05/06 07:41:01;;;;;;;18.25;12.90;;;16.40;67.90;;;;;;5050926;28;20090;-47
2022/05/06 07:43:27;;;;;;;19.50;13.48;;;16.60;69.30;;;;;;5051239;28;20021;-45
2022/05/06 07:45:54;;;;;;;17.20;14.52;;;16.80;68.00;;;;;;5051134;28;20249;-45
2022/05/06 07:48:21;;;;;;;17.83;13.88;;;16.80;66.70;;;;;;5048556;28;20812;-49
2022/05/06 07:50:49;;;;;;;18.02;13.90;;;16.70;67.00;;;;;;5041235;28;20041;-45
2022/05/06 07:53:16;;;;;;;18.00;14.57;;;16.80;66.30;;;;;;5051116;28;20052;-45
2022/05/06 07:55:43;;;;;;;18.48;14.68;;;16.90;65.70;;;;;;5030730;28;20029;-50
2022/05/06 07:58:10;;;;;;;14.23;12.40;;;17.40;65.90;;;;;;5034083;28;20025;-45
2022/05/06 08:00:39;;;;;;;17.10;13.57;;;18.20;63.10;;;;;;5046432;28;20033;-45
2022/05/06 08:05:56;;;;;;;13.13;11.73;;;19.30;60.20;;;;;;5045300;28;20119;-52
2022/05/06 08:08:25;;;;;;;14.15;12.68;;;20.20;58.80;;;;;;5034513;28;20039;-47
2022/05/06 08:10:55;;;;;;;18.23;13.80;;;20.50;57.40;;;;;;5046375;28;20048;-50
2022/05/06 08:13:22;;;;;;;15.27;13.68;;;20.70;55.20;;;;;;5049653;28;20039;-48
2022/05/06 08:15:52;;;;;;;15.27;12.90;;;21.40;53.90;;;;;;5046875;28;20044;-47
2022/05/06 08:18:22;;;;;;;15.95;12.98;;;21.40;52.00;;;;;;5032488;28;20025;-48
2022/05/06 08:20:51;;;;;;;15.43;12.35;;;21.10;53.80;;;;;;5035523;28;20034;-50
2022/05/06 08:23:22;;;;;;;13.55;10.90;;;21.30;53.40;;;;;;5051692;28;20028;-48
2022/05/06 08:25:50;;;;;;;14.55;12.32;;;20.60;52.50;;;;;;5036783;28;20034;-46
2022/05/06 08:28:19;;;;;;;12.88;11.40;;;19.70;54.10;;;;;;5018099;28;20035;-45
2022/05/06 08:30:49;;;;;;;22.83;12.82;;;18.90;55.20;;;;;;5035683;28;20029;-48
2022/05/06 08:33:16;;;;;;;20.83;12.40;;;18.70;56.00;;;;;;5036489;28;20029;-46
2022/05/06 08:35:43;;;;;;;16.33;12.23;;;18.40;57.60;;;;;;5044265;28;20087;-46
2022/05/06 08:38:10;;;;;;;17.55;13.27;;;18.10;59.00;;;;;;5045732;28;20354;-45
2022/05/06 08:40:37;;;;;;;15.00;12.27;;;17.70;60.70;;;;;;5050569;28;20072;-45
2022/05/06 08:43:07;;;;;;;16.50;13.60;;;17.70;60.90;;;;;;5039970;28;20104;-45
2022/05/06 08:51:13;;;;;;;20.30;14.57;;;17.50;63.70;;;;;;5049193;28;20040;-46
2022/05/06 08:53:42;;;;;;;19.60;17.05;;;17.70;63.50;;;;;;5052397;28;20057;-45
2022/05/06 08:56:08;;;;;;;22.35;16.40;;;17.80;63.20;;;;;;5033788;28;20028;-47
2022/05/06 08:58:37;;;;;;;17.52;14.70;;;18.20;63.00;;;;;;5039024;28;20025;-45
2022/05/06 09:01:21;;;;;;;19.90;16.65;;;18.20;61.10;;;;;;5032360;28;20029;-49
2022/05/06 09:03:48;;;;;;;18.17;15.20;;;17.90;61.90;;;;;;5052675;28;20029;-46
2022/05/06 09:06:26;;;;;;;21.02;16.85;;;18.10;62.30;;;;;;5052515;28;20037;-45
2022/05/06 09:08:55;;;;;;;23.05;16.95;;;18.10;61.90;;;;;;5024309;28;20033;-46
2022/05/06 09:14:14;;;;;;;20.05;16.58;;;18.60;61.40;;;;;;5052604;28;20040;-45
2022/05/06 09:16:42;;;;;;;17.92;15.68;;;18.60;61.50;;;;;;5051359;28;20021;-46
2022/05/06 09:19:14;;;;;;;23.05;16.75;;;18.80;61.70;;;;;;5052062;28;20032;-46
2022/05/06 09:22:09;;;;;;;22.38;17.02;;;19.40;61.90;;;;;;5051595;28;20086;-45
2022/05/06 09:24:40;;;;;;;23.73;17.80;;;19.90;59.00;;;;;;5036287;28;20033;-51
2022/05/06 09:27:14;;;;;;;21.73;16.45;;;20.40;56.60;;;;;;5052806;28;20342;-48
2022/05/06 09:30:07;;;;;;;23.83;16.40;;;20.90;55.50;;;;;;5045470;28;20032;-48
2022/05/06 09:32:33;;;;;;;20.40;17.30;;;20.80;55.80;;;;;;5049088;28;20039;-47
2022/05/06 09:35:18;;;;;;;19.73;16.92;;;20.60;56.80;;;;;;5052086;28;20079;-45
2022/05/06 09:37:49;;;;;;;17.30;15.60;;;21.00;57.50;;;;;;5034204;28;20037;-49
2022/05/06 09:40:27;;;;;;;18.45;16.17;;;21.40;56.30;;;;;;5046205;28;20699;-46
2022/05/06 09:42:59;;;;;;;21.50;17.13;;;21.50;54.70;;;;;;5033901;28;20056;-51
2022/05/06 09:45:38;;;;;;;16.10;14.40;;;21.40;54.10;;;;;;5043036;28;20036;-46
2022/05/06 09:48:15;;;;;;;17.92;14.90;;;21.20;55.70;;;;;;5045249;28;20231;-50
2022/05/06 09:50:46;;;;;;;18.70;16.75;;;21.40;52.50;;;;;;5032293;28;20071;-46
2022/05/06 09:53:15;;;;;;;23.42;20.58;;;21.80;54.50;;;;;;5029735;28;20061;-52
2022/05/06 09:55:46;;;;;;;23.65;21.25;;;22.20;52.30;;;;;;5002849;28;20332;-47
2022/05/06 09:58:14;;;;;;;25.20;22.40;;;21.60;54.90;;;;;;5005373;28;20091;-48
2022/05/06 10:00:45;;;;;;;23.35;21.00;;;20.90;56.20;;;;;;5012338;28;20025;-47
2022/05/06 10:03:15;;;;;;;25.73;23.10;;;20.70;58.20;;;;;;5013664;28;20033;-45
2022/05/06 10:05:42;;;;;;;26.85;23.15;;;20.40;58.10;;;;;;5020274;28;20107;-48
2022/05/06 10:08:27;;;;;;;23.65;21.33;;;19.90;59.20;;;;;;5012300;28;20026;-45
2022/05/06 10:11:00;;;;;;;31.60;27.17;;;19.80;60.50;;;;;;5013268;28;20481;-45
2022/05/06 10:13:32;;;;;;;28.77;25.48;;;19.20;62.90;;;;;;5013010;28;20044;-47
2022/05/06 10:16:01;;;;;;;27.70;24.50;;;19.40;64.40;;;;;;4998783;28;20108;-46
2022/05/06 10:18:42;;;;;;;25.63;22.83;;;20.20;61.30;;;;;;5023899;28;20018;-49
2022/05/06 10:21:16;;;;;;;27.02;22.52;;;20.40;60.70;;;;;;5012744;28;20053;-47
2022/05/06 10:23:46;;;;;;;28.27;23.75;;;20.20;59.90;;;;;;5013219;28;20499;-47
2022/05/06 10:26:36;;;;;;;25.25;21.75;;;20.50;60.00;;;;;;5018768;28;20407;-47
2022/05/06 10:35:05;;;;;;;28.50;25.00;;;21.10;58.00;;;;;;4996094;28;20044;-48
2022/05/06 10:37:40;;;;;;;25.00;22.27;;;20.10;58.80;;;;;;5011366;28;20766;-46
2022/05/06 10:40:24;;;;;;;25.55;21.60;;;20.00;60.30;;;;;;5010836;28;20447;-46
2022/05/06 10:42:52;;;;;;;21.10;18.83;;;20.40;58.80;;;;;;5012619;28;20116;-51
2022/05/06 10:45:33;;;;;;;20.85;18.52;;;20.60;58.60;;;;;;4998818;28;20037;-46
2022/05/06 10:48:16;;;;;;;20.38;18.17;;;21.10;57.40;;;;;;5010369;28;20584;-46
2022/05/06 10:50:43;;;;;;;17.52;15.70;;;20.90;55.70;;;;;;5020365;28;20324;-48
2022/05/06 10:53:32;;;;;;;21.60;17.95;;;20.80;58.10;;;;;;5022156;28;20095;-47
2022/05/06 10:55:57;;;;;;;21.08;17.42;;;21.10;57.40;;;;;;5032423;28;20025;-46
2022/05/06 10:58:24;;;;;;;16.35;14.65;;;21.50;57.30;;;;;;5032138;28;20067;-46
2022/05/06 11:00:59;;;;;;;17.42;15.57;;;22.20;55.70;;;;;;5033627;28;20033;-46
2022/05/06 11:03:26;;;;;;;15.07;12.65;;;22.20;54.90;;;;;;5032520;28;20402;-47
2022/05/06 11:05:53;;;;;;;16.02;13.25;;;22.10;54.80;;;;;;5032199;28;20124;-46
2022/05/06 11:08:31;;;;;;;14.80;11.48;;;21.80;51.80;;;;;;5014081;28;20035;-46
2022/05/06 11:10:58;;;;;;;11.68;9.35;;;21.30;54.70;;;;;;5030923;28;20505;-49
2022/05/06 11:13:25;;;;;;;14.25;10.95;;;21.40;54.20;;;;;;5023256;28;20124;-46
2022/05/06 11:15:55;;;;;;;12.50;10.02;;;21.50;52.10;;;;;;5032139;28;20028;-46
2022/05/06 11:18:22;;;;;;;9.23;8.20;;;21.00;53.00;;;;;;5030561;28;20036;-49
2022/05/06 11:20:50;;;;;;;14.75;11.45;;;20.90;54.10;;;;;;5026397;28;20036;-48
2022/05/06 11:23:18;;;;;;;16.38;12.68;;;20.90;53.40;;;;;;5034752;28;20486;-48
2022/05/06 11:26:02;;;;;;;22.48;20.17;;;20.40;54.90;;;;;;5047130;28;20115;-47
2022/05/06 11:28:32;;;;;;;14.38;11.52;;;20.20;64.30;;;;;;5050056;28;20055;-45
2022/05/06 11:31:01;;;;;;;25.27;20.45;;;20.60;59.70;;;;;;5031884;28;20351;-47
2022/05/06 11:33:31;;;;;;;18.25;15.93;;;20.70;64.10;;;;;;5031840;28;20033;-48
2022/05/06 11:36:03;;;;;;;20.98;18.80;;;20.70;62.20;;;;;;5031330;28;20029;-50
2022/05/06 11:38:48;;;;;;;24.17;17.52;;;20.50;66.00;;;;;;5031097;28;20049;-45
2022/05/06 11:41:17;;;;;;;20.13;18.00;;;21.00;66.50;;;;;;5029048;28;20033;-46
2022/05/06 11:43:45;;;;;;;16.40;14.63;;;21.10;63.70;;;;;;5030692;28;20029;-45
2022/05/06 11:49:06;;;;;;;16.60;14.82;;;21.50;63.80;;;;;;5031124;28;20497;-47
2022/05/06 11:51:41;;;;;;;17.40;15.38;;;21.60;61.80;;;;;;5044808;28;20037;-46
2022/05/06 11:54:09;;;;;;;18.33;16.58;;;20.90;63.10;;;;;;5032106;28;20050;-44
2022/05/06 11:56:36;;;;;;;20.25;15.77;;;20.40;65.00;;;;;;5015043;28;20445;-45
2022/05/06 11:59:04;;;;;;;16.25;14.38;;;20.40;65.70;;;;;;5008965;28;20034;-47
2022/05/06 12:01:38;;;;;;;17.00;15.20;;;21.00;67.20;;;;;;5009159;28;20030;-47
2022/05/06 12:04:10;;;;;;;17.20;15.50;;;20.60;61.50;;;;;;5014691;28;20037;-48
2022/05/06 12:06:50;;;;;;;19.30;15.20;;;19.80;63.30;;;;;;5015578;28;20034;-45
2022/05/06 12:09:24;;;;;;;17.30;14.63;;;19.00;67.10;;;;;;5027931;28;20037;-46
2022/05/06 12:12:10;;;;;;;20.77;15.00;;;18.30;67.00;;;;;;5006020;28;20041;-45
2022/05/06 12:14:38;;;;;;;14.30;12.82;;;18.00;69.20;;;;;;5014867;28;20073;-50
2022/05/06 12:17:12;;;;;;;16.55;13.50;;;18.40;68.30;;;;;;5014171;28;20096;-46
2022/05/06 12:19:59;;;;;;;13.05;11.48;;;18.70;68.90;;;;;;5012367;28;20418;-47
2022/05/06 12:22:31;;;;;;;14.52;10.48;;;19.00;65.30;;;;;;5014293;28;20037;-45
2022/05/06 12:24:58;;;;;;;12.60;11.30;;;18.60;66.90;;;;;;5016088;28;20446;-47
2022/05/06 12:27:34;;;;;;;13.73;12.32;;;18.10;67.00;;;;;;5015715;28;20037;-46
2022/05/06 12:30:02;;;;;;;11.82;10.63;;;17.90;67.80;;;;;;5015724;28;20560;-46
2022/05/06 12:32:29;;;;;;;11.00;9.73;;;17.60;68.80;;;;;;5015267;28;20036;-45
2022/05/06 12:35:21;;;;;;;11.43;9.60;;;17.80;69.90;;;;;;5015434;28;20462;-43
2022/05/06 12:37:53;;;;;;;12.13;8.85;;;17.90;67.50;;;;;;5012871;28;20046;-45
2022/05/06 12:40:22;;;;;;;10.32;9.00;;;17.80;67.30;;;;;;5015656;28;20469;-45
2022/05/06 12:43:07;;;;;;;9.50;8.33;;;17.80;68.70;;;;;;5014361;28;20339;-46
2022/05/06 12:45:38;;;;;;;10.98;8.95;;;18.10;68.20;;;;;;4995893;28;20065;-47
2022/05/06 12:50:51;;;;;;;11.77;10.55;;;17.80;67.90;;;;;;5015175;28;20177;-45
2022/05/06 12:53:19;;;;;;;9.80;8.80;;;18.00;69.10;;;;;;5025722;28;20110;-48
2022/05/06 12:55:45;;;;;;;13.45;8.30;;;17.90;66.90;;;;;;5039971;28;20032;-45
2022/05/06 12:58:12;;;;;;;9.77;8.77;;;17.80;66.40;;;;;;5036155;28;20029;-50
2022/05/06 13:00:39;;;;;;;10.13;9.05;;;17.50;66.60;;;;;;5034335;28;20087;-46
2022/05/06 13:03:05;;;;;;;10.80;8.63;;;17.30;68.50;;;;;;5034924;28;20033;-48
2022/05/06 13:05:33;;;;;;;7.90;7.10;;;16.90;70.00;;;;;;5036112;28;20057;-49
2022/05/06 13:08:05;;;;;;;10.00;8.85;;;16.60;71.10;;;;;;5033475;28;20044;-47
2022/05/06 13:10:34;;;;;;;9.82;8.82;;;16.60;74.20;;;;;;5033273;28;20065;-45
2022/05/06 13:13:02;;;;;;;9.07;8.18;;;16.80;74.30;;;;;;5034708;28;20056;-48
2022/05/06 13:15:29;;;;;;;9.43;8.52;;;16.50;74.50;;;;;;5036825;28;20017;-45
2022/05/06 13:17:59;;;;;;;10.43;9.43;;;16.70;74.60;;;;;;5035302;28;20127;-44
2022/05/06 13:20:26;;;;;;;11.82;10.40;;;16.90;74.40;;;;;;5034519;28;20453;-45
2022/05/06 13:22:53;;;;;;;10.70;9.60;;;16.70;74.10;;;;;;5040177;28;20401;-50
2022/05/06 13:25:19;;;;;;;10.70;9.50;;;16.80;74.20;;;;;;5035622;28;20037;-46
2022/05/06 13:27:46;;;;;;;10.45;9.45;;;17.00;74.70;;;;;;5036281;28;20030;-48
2022/05/06 13:30:13;;;;;;;11.05;9.95;;;16.90;75.20;;;;;;5045661;28;20485;-45
2022/05/06 13:32:40;;;;;;;9.18;8.27;;;16.90;73.80;;;;;;5035023;28;20038;-44
2022/05/06 13:35:08;;;;;;;10.70;9.70;;;16.80;75.10;;;;;;5028997;28;20026;-47